Time;durP1;ratioP1;P1;durP2;ratioP2;P2;SDS_P1;SDS_P2;PMS_P1;PMS_P2;Temp;Humidity;BMP_temperature;BMP_pressure;BME280_temperature;BME280_humidity;BME280_pressure;Samples;Min_cycle;Max_cycle;Signal;HPM_P1;HPM_P2
2023/11/21 05:22:19;;;;;;;15.05;8.05;;;;;;;-144.05;88.76;57033.63;5048100;28;20364;-84
2023/11/21 05:24:46;;;;;;;18.88;8.02;;;;;;;-144.05;88.30;57027.25;5026783;28;20488;-84
2023/11/21 05:27:12;;;;;;;19.42;9.30;;;;;;;-144.05;88.20;57042.13;5026005;28;20040;-84
2023/11/21 05:29:38;;;;;;;15.60;8.02;;;;;;;-144.05;87.55;57056.97;5024268;28;20035;-85
2023/11/21 05:32:05;;;;;;;21.52;10.43;;;;;;;-144.05;87.50;57073.97;5020910;28;20019;-82
2023/11/21 05:34:31;;;;;;;19.35;9.82;;;;;;;-144.05;87.86;57050.63;5008999;28;20054;-82
2023/11/21 05:36:58;;;;;;;18.33;9.50;;;;;;;-144.05;87.93;57052.75;5044228;28;20023;-82
2023/11/21 05:39:24;;;;;;;21.95;10.25;;;;;;;-144.05;88.63;57046.38;5040909;28;20033;-83
2023/11/21 05:41:50;;;;;;;24.40;10.57;;;;;;;-144.05;88.92;57040.00;5019029;28;20456;-83
2023/11/21 05:44:17;;;;;;;22.10;11.70;;;;;;;-144.05;88.94;57040.00;4999193;28;20034;-82
2023/11/21 05:46:43;;;;;;;23.80;11.82;;;6.70;99.90;;;-144.05;87.88;57042.13;4998024;28;20014;-79
2023/11/21 05:49:09;;;;;;;29.40;12.88;;;;;;;-144.05;88.12;57054.88;5061162;28;20462;-82
2023/11/21 05:51:38;;;;;;;22.15;11.63;;;6.50;99.90;;;-144.05;87.92;57046.38;5017307;28;20030;-83
2023/11/21 05:54:04;;;;;;;27.85;12.75;;;;;;;-144.05;87.84;57044.25;5027047;28;20066;-83
2023/11/21 05:56:31;;;;;;;24.60;12.90;;;;;;;-144.05;87.88;57044.25;5022636;28;20030;-82
2023/11/21 05:58:57;;;;;;;29.50;13.27;;;;;;;-144.05;88.23;57025.13;5051398;28;20034;-83
2023/11/21 06:01:23;;;;;;;26.08;11.50;;;;;;;-144.05;88.15;57025.13;5042378;28;20373;-84
2023/11/21 06:03:49;;;;;;;19.67;11.30;;;;;;;-144.05;87.95;57054.88;5038362;28;20518;-85
2023/11/21 06:06:16;;;;;;;28.58;12.73;;;;;;;-144.05;88.14;57056.97;5045533;28;20063;-85
2023/11/21 06:08:42;;;;;;;29.65;12.90;;;;;;;-144.05;88.40;57046.38;5029506;28;20027;-82
2023/11/21 06:11:11;;;;;;;31.33;13.48;;;;;;;-144.05;88.54;57029.38;5030168;28;20030;-82
2023/11/21 06:13:37;;;;;;;31.13;13.63;;;;;;;-144.05;89.06;57029.38;5028840;28;20528;-82
2023/11/21 06:16:04;;;;;;;30.77;13.90;;;;;;;-144.05;89.59;57044.25;5020665;28;20406;-85
2023/11/21 06:18:30;;;;;;;32.60;14.25;;;;;;;-144.05;90.60;57033.63;4991557;28;20073;-82
2023/11/21 06:20:57;;;;;;;28.90;12.65;;;;;;;-144.05;90.99;57052.75;5034476;28;20084;-83
2023/11/21 06:23:23;;;;;;;36.55;14.80;;;;;;;-144.05;89.91;57025.13;5022103;28;20039;-83
2023/11/21 06:25:49;;;;;;;34.85;13.55;;;;;;;-144.05;89.46;57073.97;4995758;28;20416;-82
2023/11/21 06:28:17;;;;;;;34.53;15.45;;;;;;;-144.05;89.49;57078.22;5034276;28;20430;-83
2023/11/21 06:30:44;;;;;;;30.05;14.15;;;;;;;-144.05;89.97;57020.88;5005566;28;20027;-84
2023/11/21 06:33:11;;;;;;;38.92;14.30;;;;;;;-144.05;90.55;57065.47;5038503;28;20029;-82
2023/11/21 06:35:37;;;;;;;34.10;14.65;;;;;;;-144.05;90.55;57061.22;4989854;28;20062;-83
2023/11/21 06:38:03;;;;;;;32.08;15.02;;;;;;;-144.05;91.16;57056.97;5010629;28;20019;-82
2023/11/21 06:40:29;;;;;;;31.40;12.73;;;;;;;-144.05;90.85;57048.50;5057654;28;20034;-82
2023/11/21 06:42:58;;;;;;;28.50;13.27;;;;;;;-144.05;91.05;57035.75;5044495;28;20038;-82
2023/11/21 06:45:25;;;;;;;30.85;13.85;;;;;;;-144.05;90.93;57056.97;4995387;28;20128;-82
2023/11/21 06:47:51;;;;;;;29.15;13.52;;;;;;;-144.05;90.73;57067.59;5031340;28;20020;-81
2023/11/21 06:50:18;;;;;;;31.42;13.88;;;;;;;-144.05;90.83;57052.75;4999272;28;20016;-81
2023/11/21 06:52:44;;;;;;;32.35;13.48;;;;;;;-144.05;90.88;57040.00;5000501;28;20027;-82
2023/11/21 06:55:10;;;;;;;31.00;14.82;;;;;;;-144.05;90.62;57048.50;4998381;28;20035;-82
2023/11/21 06:57:38;;;;;;;38.80;17.15;;;;;;;-144.05;90.46;57048.50;5060079;28;20054;-82
2023/11/21 07:00:06;;;;;;;34.58;15.80;;;6.10;99.90;;;-144.05;90.25;57054.88;5026316;28;20035;-81
2023/11/21 07:02:32;;;;;;;34.45;15.63;;;;;;;-144.05;90.33;57061.22;5018979;28;20036;-81
2023/11/21 07:04:58;;;;;;;26.55;13.70;;;;;;;-144.05;90.37;57061.22;4995959;28;20393;-82
2023/11/21 07:07:24;;;;;;;27.30;13.40;;;;;;;-144.05;90.17;57059.09;4975938;28;20030;-82
2023/11/21 07:09:51;;;;;;;22.10;13.07;;;;;;;-144.05;90.49;57050.63;5039618;28;20025;-82
2023/11/21 07:12:18;;;;;;;22.05;11.57;;;;;;;-144.05;90.19;57050.63;5023714;28;20111;-81
2023/11/21 07:14:44;;;;;;;20.45;11.50;;;;;;;-144.05;90.16;57048.50;5020368;28;20046;-80
2023/11/21 07:17:12;;;;;;;21.80;10.70;;;7.20;99.90;;;-144.05;90.47;57052.75;4993122;28;20122;-84
2023/11/21 07:19:39;;;;;;;20.13;9.52;;;7.00;99.90;;;-144.05;90.62;57076.09;5038654;28;20038;-82
2023/11/21 07:22:05;;;;;;;22.27;11.75;;;;;;;-144.05;90.44;57046.38;5032084;28;20058;-83
2023/11/21 07:24:32;;;;;;;25.20;11.93;;;;;;;-144.05;90.69;57031.50;5037290;28;20127;-82
2023/11/21 07:26:59;;;;;;;24.83;12.70;;;;;;;-144.05;90.77;56999.63;5021854;28;20454;-83
2023/11/21 07:29:26;;;;;;;33.65;14.88;;;;;;;-144.05;90.91;57048.50;5000138;28;20046;-82
2023/11/21 07:31:53;;;;;;;27.45;12.85;;;;;;;-144.05;90.88;57029.38;5034135;28;20398;-83
2023/11/21 07:34:21;;;;;;;27.88;13.43;;;;;;;-144.05;90.70;57054.88;5042146;28;20032;-83
2023/11/21 07:36:48;;;;;;;28.08;13.25;;;;;;;-144.05;90.76;57023.00;5009582;28;20040;-82
2023/11/21 07:39:16;;;;;;;34.17;14.43;;;;;;;-144.05;91.10;57065.47;5005379;28;20035;-83
2023/11/21 07:41:48;;;;;;;34.83;13.50;;;;;;;-144.05;90.95;57033.63;5017215;28;20505;-81
2023/11/21 07:44:17;;;;;;;30.92;14.07;;;;;;;-144.05;90.96;57061.22;5018225;28;20040;-82
2023/11/21 07:46:44;;;;;;;36.72;14.52;;;;;;;-144.05;90.78;57001.75;4994524;28;20448;-82
2023/11/21 07:49:10;;;;;;;28.33;13.68;;;;;;;-144.05;90.97;57014.50;5024484;28;20044;-82
2023/11/21 07:51:36;;;;;;;37.28;15.43;;;;;;;-144.05;91.02;57048.50;5023783;28;20038;-82
2023/11/21 07:54:03;;;;;;;44.42;17.05;;;;;;;-144.05;91.12;57016.63;5044969;28;20074;-83
2023/11/21 07:56:29;;;;;;;40.80;17.35;;;;;;;-144.05;91.15;57048.50;5020662;28;20042;-82
2023/11/21 07:58:55;;;;;;;53.47;20.08;;;;;;;-144.05;91.24;56997.50;5002906;28;20027;-82
2023/11/21 08:01:21;;;;;;;43.33;18.83;;;;;;;-144.05;90.96;56980.53;4994785;28;20550;-84
2023/11/21 08:03:51;;;;;;;46.20;17.33;;;;;;;-144.05;90.90;57010.25;4989049;28;20089;-83
2023/11/21 08:06:20;;;;;;;41.60;17.13;;;;;;;-144.05;91.02;57031.50;5039896;28;20033;-83
2023/11/21 08:08:47;;;;;;;46.90;18.42;;;;;;;-144.05;90.89;57023.00;5017905;28;20083;-82
2023/11/21 08:11:13;;;;;;;44.72;17.88;;;;;;;-144.05;90.97;57029.38;5006480;28;20118;-83
2023/11/21 08:13:39;;;;;;;37.45;16.42;;;;;;;-144.05;90.57;57027.25;4999992;28;20034;-84
2023/11/21 08:16:07;;;;;;;40.10;17.33;;;;;;;-144.05;90.45;57035.75;5074560;28;20094;-82
2023/11/21 08:18:34;;;;;;;39.60;16.45;;;;;;;-144.05;90.64;56984.78;5050787;28;20024;-82
2023/11/21 08:21:00;;;;;;;40.17;16.67;;;;;;;-144.05;90.29;57006.00;5015607;28;20062;-80
2023/11/21 08:23:26;;;;;;;35.58;16.52;;;;;;;-144.05;90.01;57025.13;5033687;28;20039;-82
2023/11/21 08:25:53;;;;;;;34.10;15.40;;;7.80;99.90;;;-144.05;90.16;57014.50;5036557;28;20031;-82
2023/11/21 08:28:22;;;;;;;35.88;17.55;;;;;;;-144.05;90.57;57014.50;5017707;28;20040;-82
2023/11/21 08:30:48;;;;;;;34.47;13.68;;;;;;;-144.05;90.39;57008.13;5054035;28;20413;-82
2023/11/21 08:33:14;;;;;;;31.60;14.00;;;;;;;-144.05;90.31;57023.00;4983024;28;20022;-81
2023/11/21 08:35:41;;;;;;;24.48;11.90;;;;;;;-144.05;90.37;57046.38;5003472;28;20117;-82
2023/11/21 08:38:07;;;;;;;27.63;14.63;;;;;;;-144.05;90.32;57018.75;5013639;28;20042;-82
2023/11/21 08:40:34;;;;;;;34.20;15.52;;;;;;;-144.05;90.27;57052.75;5014922;28;20028;-81
2023/11/21 08:43:04;;;;;;;41.00;16.02;;;;;;;-144.05;89.79;57029.38;5055098;28;20432;-83
2023/11/21 08:45:31;;;;;;;29.10;13.52;;;;;;;-144.05;90.27;57008.13;5008522;28;20046;-82
2023/11/21 08:47:57;;;;;;;37.13;15.85;;;;;;;-144.05;89.97;56999.63;5014052;28;20470;-83
2023/11/21 08:50:23;;;;;;;41.58;17.02;;;;;;;-144.05;89.78;57001.75;5025360;28;20040;-83
2023/11/21 08:52:49;;;;;;;41.75;15.52;;;;;;;-144.05;89.99;57031.50;4987187;28;20035;-82
2023/11/21 08:55:16;;;;;;;39.35;17.48;;;;;;;-144.05;89.51;57003.88;5027091;28;20057;-83
2023/11/21 08:57:46;;;;;;;41.70;15.45;;;8.10;99.90;;;-144.05;89.49;56999.63;4997454;28;20023;-83
2023/11/21 09:00:15;;;;;;;37.58;16.20;;;;;;;-144.05;89.71;57001.75;5016870;28;20024;-82
2023/11/21 09:02:42;;;;;;;39.53;17.35;;;;;;;-144.05;89.73;57023.00;5009078;28;20031;-81
2023/11/21 09:05:13;;;;;;;35.08;17.58;;;;;;;-144.05;89.83;57008.13;5044126;28;20029;-84
2023/11/21 09:07:42;;;;;;;35.08;14.82;;;8.70;99.90;;;-144.05;89.85;57061.22;5004029;28;20035;-82
2023/11/21 09:10:09;;;;;;;40.75;16.38;;;9.30;99.90;;;-144.05;89.82;57010.25;5021136;28;20339;-83
2023/11/21 09:12:40;;;;;;;37.22;16.10;;;9.30;99.90;;;-144.05;89.69;57029.38;5055185;28;20036;-82
2023/11/21 09:15:09;;;;;;;38.85;15.57;;;8.40;99.90;;;-144.05;89.59;57014.50;5031709;28;20370;-83
2023/11/21 09:17:36;;;;;;;37.78;17.00;;;;;;;-144.05;89.26;57035.75;5013451;28;20030;-82
2023/11/21 09:20:05;;;;;;;42.38;16.63;;;;;;;-144.05;89.67;57023.00;5008788;28;20051;-83
2023/11/21 09:22:32;;;;;;;46.70;18.05;;;;;;;-144.05;88.95;57023.00;5025532;28;20044;-81
2023/11/21 09:24:58;;;;;;;38.30;17.52;;;;;;;-144.05;89.19;57012.38;5043232;28;20038;-81
2023/11/21 09:27:27;;;;;;;40.45;17.42;;;;;;;-144.05;88.60;57033.63;5037316;28;20030;-84
2023/11/21 09:29:55;;;;;;;42.83;19.23;;;;;;;-144.05;88.80;57010.25;5008134;28;20099;-83
2023/11/21 09:32:21;;;;;;;39.00;19.20;;;;;;;-144.05;88.73;57061.22;5018607;28;20160;-81
2023/11/21 09:34:50;;;;;;;40.72;19.30;;;8.70;99.90;;;-144.05;89.00;57018.75;5012226;28;20022;-81
2023/11/21 09:37:16;;;;;;;48.45;19.40;;;;;;;-144.05;89.12;57016.63;5008270;28;20471;-83
2023/11/21 09:39:43;;;;;;;51.45;20.95;;;;;;;-144.05;89.18;57010.25;4996513;28;20392;-83
2023/11/21 09:42:21;;;;;;;55.30;21.73;;;;;;;-144.05;88.83;57008.13;5030844;28;20031;-81
2023/11/21 09:45:18;;;;;;;60.63;23.08;;;9.00;99.90;;;-144.05;88.20;57046.38;5007928;28;20391;-82
2023/11/21 09:47:45;;;;;;;66.65;25.10;;;;;;;-144.05;87.08;57027.25;5044791;28;20032;-83
2023/11/21 09:50:17;;;;;;;67.32;25.70;;;;;;;-144.05;87.65;57006.00;5009932;28;20012;-83
2023/11/21 09:53:04;;;;;;;74.03;28.52;;;9.10;99.90;;;-144.05;87.73;57018.75;5035538;28;20097;-81
2023/11/21 09:55:38;;;;;;;77.00;28.13;;;;;;;-144.05;85.96;57010.25;5043691;28;20124;-83
2023/11/21 09:58:11;;;;;;;67.85;27.02;;;;;;;-144.05;86.99;57031.50;5021593;28;20335;-84
2023/11/21 10:00:47;;;;;;;66.40;25.33;;;;;;;-144.05;87.00;57001.75;5034262;28;20044;-82
2023/11/21 10:03:14;;;;;;;78.32;28.60;;;;;;;-144.05;87.04;56978.41;5009704;28;20055;-82
2023/11/21 10:05:48;;;;;;;69.32;24.55;;;;;;;-144.05;86.99;57001.75;5026771;28;20553;-81
2023/11/21 10:08:14;;;;;;;58.92;25.33;;;;;;;-144.05;87.44;57052.75;5004558;28;20474;-82
2023/11/21 10:10:45;;;;;;;62.85;27.25;;;;;;;-144.05;87.50;57031.50;5014903;28;20057;-81
2023/11/21 10:13:16;;;;;;;75.20;27.52;;;;;;;-144.05;87.06;57046.38;5007989;28;20038;-82
2023/11/21 10:15:48;;;;;;;59.92;25.35;;;;;;;-144.05;87.43;57029.38;5046496;28;20072;-83
2023/11/21 10:18:16;;;;;;;62.20;26.88;;;9.20;99.90;;;-144.05;87.41;57001.75;5040248;28;20026;-84
2023/11/21 10:20:43;;;;;;;64.40;24.77;;;;;;;-144.05;87.10;57014.50;4976946;28;20161;-81
2023/11/21 10:23:11;;;;;;;55.42;23.63;;;;;;;-144.05;87.18;57027.25;5033911;28;20035;-80
2023/11/21 10:25:38;;;;;;;64.43;25.77;;;;;;;-144.05;87.18;57027.25;5052079;28;20028;-82
2023/11/21 10:28:07;;;;;;;61.45;24.63;;;9.70;99.90;;;-144.05;86.92;57006.00;5020432;28;20031;-83
2023/11/21 10:30:37;;;;;;;58.97;24.75;;;10.20;99.90;;;-144.05;87.08;57010.25;5037115;28;20036;-81
2023/11/21 10:33:05;;;;;;;65.63;24.10;;;;;;;-144.05;87.01;57018.75;5014523;28;20057;-83
2023/11/21 10:35:54;;;;;;;73.63;25.98;;;11.20;99.90;;;-144.05;86.88;57001.75;5002960;28;20031;-80
2023/11/21 10:38:23;;;;;;;69.15;25.73;;;;;;;-144.05;86.94;56997.50;4977859;28;20041;-82
2023/11/21 10:40:51;;;;;;;60.80;23.88;;;;;;;-144.05;86.94;57003.88;5004640;28;20027;-80
2023/11/21 10:43:18;;;;;;;66.15;24.80;;;10.10;99.90;;;-144.05;86.75;57001.75;5058883;28;20129;-83
2023/11/21 10:45:45;;;;;;;68.05;24.95;;;;;;;-144.05;85.38;57020.88;4983622;28;20027;-83
2023/11/21 10:48:17;;;;;;;68.50;26.25;;;9.80;99.90;;;-144.05;84.51;57025.13;5050601;28;20027;-83
2023/11/21 10:50:45;;;;;;;57.67;23.38;;;;;;;-144.05;83.89;57014.50;5058228;28;20036;-81
2023/11/21 10:53:12;;;;;;;72.25;24.02;;;;;;;-144.05;84.49;56999.63;4988177;28;20290;-80
2023/11/21 10:55:39;;;;;;;69.00;25.58;;;;;;;-144.05;84.63;57040.00;5019434;28;20031;-83
2023/11/21 10:58:06;;;;;;;57.17;24.38;;;;;;;-144.05;84.40;57010.25;5091412;28;20019;-81
2023/11/21 11:00:34;;;;;;;56.72;24.83;;;;;;;-144.05;84.45;57016.63;5012246;28;20027;-81
2023/11/21 11:03:02;;;;;;;64.78;25.67;;;;;;;-144.05;84.57;57027.25;5048335;28;20532;-81
2023/11/21 11:05:31;;;;;;;57.58;23.38;;;9.60;99.90;;;-144.05;84.07;57012.38;5065256;28;20032;-81
2023/11/21 11:08:12;;;;;;;59.53;23.50;;;;;;;-144.05;84.94;57033.63;5016156;28;20108;-81
2023/11/21 11:10:38;;;;;;;67.25;25.55;;;;;;;-144.05;84.83;57023.00;5066428;28;20074;-79
2023/11/21 11:13:06;;;;;;;53.78;23.08;;;;;;;-144.05;85.25;57012.38;5051642;28;20019;-83
2023/11/21 11:15:33;;;;;;;50.17;21.67;;;;;;;-144.05;85.55;57010.25;5044014;28;20019;-82
2023/11/21 11:18:00;;;;;;;51.13;21.30;;;;;;;-144.05;85.14;57006.00;5015329;28;20016;-79
2023/11/21 11:20:34;;;;;;;48.55;20.98;;;;;;;-144.05;85.11;57020.88;5006054;28;20065;-82
2023/11/21 11:24:07;;;;;;;50.38;19.77;;;10.20;99.90;;;-144.05;85.09;57018.75;5008422;28;20011;-81
2023/11/21 11:27:08;;;;;;;41.85;19.58;;;10.40;99.90;;;-144.05;84.92;57027.25;5029508;28;20035;-80
2023/11/21 11:30:18;;;;;;;49.45;19.52;;;9.60;99.90;;;-144.05;84.98;57018.75;4994809;28;20094;-80
2023/11/21 11:33:21;;;;;;;45.45;19.02;;;10.70;99.90;;;-144.05;85.17;57006.00;5058445;28;20012;-79
2023/11/21 11:36:13;;;;;;;50.92;19.95;;;;;;;-144.05;85.39;57006.00;5076459;28;20019;-80
2023/11/21 11:38:45;;;;;;;42.55;18.95;;;;;;;-144.05;85.32;57008.13;5018019;28;20023;-83
2023/11/21 11:41:12;;;;;;;44.15;18.83;;;;;;;-144.05;85.63;57027.25;5068750;28;20051;-82
2023/11/21 11:43:45;;;;;;;44.78;18.98;;;;;;;-144.05;86.04;57025.13;5005619;28;20081;-82
2023/11/21 11:46:15;;;;;;;47.40;19.10;;;9.40;99.90;;;-144.05;86.24;57014.50;5015311;28;20046;-81
2023/11/21 11:48:41;;;;;;;48.03;19.52;;;;;;;-144.05;86.05;57003.88;5011438;28;20035;-83
2023/11/21 11:51:21;;;;;;;39.60;17.35;;;;;;;-144.05;86.21;57025.13;5064745;28;20044;-80
2023/11/21 11:53:48;;;;;;;42.95;17.77;;;9.70;99.90;;;-144.05;86.39;57025.13;5025934;28;20026;-82
2023/11/21 11:56:26;;;;;;;38.88;18.08;;;9.20;99.90;;;-144.05;86.66;56997.50;5010076;28;20042;-82
2023/11/21 11:58:59;;;;;;;38.90;17.83;;;9.20;99.90;;;-144.05;86.95;57027.25;4998713;28;20035;-82
2023/11/21 12:01:27;;;;;;;35.05;17.88;;;9.40;99.90;;;-144.05;86.88;57027.25;5057806;28;20105;-84
2023/11/21 12:04:14;;;;;;;38.08;16.95;;;;;;;-144.05;87.09;56997.50;4990098;28;20027;-83
2023/11/21 12:06:42;;;;;;;36.05;17.90;;;8.70;99.90;;;-144.05;86.97;57040.00;5012444;28;20125;-84
2023/11/21 12:09:21;;;;;;;39.83;17.35;;;;;;;-144.05;87.14;57003.88;5055201;28;20131;-84
2023/11/21 12:11:48;;;;;;;35.05;17.10;;;;;;;-144.05;87.21;57023.00;5029085;28;20057;-82
2023/11/21 12:14:16;;;;;;;38.17;18.02;;;8.70;99.90;;;-144.05;87.13;56997.50;5041809;28;20086;-84
2023/11/21 12:16:43;;;;;;;32.00;14.25;;;;;;;-144.05;87.44;57044.25;5027377;28;20077;-83
2023/11/21 12:19:11;;;;;;;36.95;16.85;;;;;;;-144.05;87.64;57006.00;5056213;28;20028;-82
2023/11/21 12:21:38;;;;;;;34.47;15.90;;;;;;;-144.05;87.55;57029.38;4999688;28;20108;-83
2023/11/21 12:24:08;;;;;;;34.25;15.73;;;;;;;-144.05;87.50;57044.25;5053695;28;20035;-83
2023/11/21 12:26:36;;;;;;;37.00;17.55;;;;;;;-144.05;87.77;57025.13;4987683;28;20084;-81
2023/11/21 12:29:04;;;;;;;36.35;15.95;;;;;;;-144.05;87.37;57016.63;5032976;28;20106;-81
2023/11/21 12:31:30;;;;;;;37.15;15.93;;;9.80;99.90;;;-144.05;87.52;57029.38;5029089;28;20114;-83
2023/11/21 12:33:57;;;;;;;35.92;16.85;;;;;;;-144.05;87.62;57020.88;4992768;28;20049;-80
2023/11/21 12:36:25;;;;;;;32.40;16.13;;;;;;;-144.05;87.23;57018.75;5016690;28;20023;-84
2023/11/21 12:38:51;;;;;;;31.40;16.33;;;;;;;-144.05;87.50;57046.38;4997585;28;20055;-82
2023/11/21 12:41:17;;;;;;;35.53;16.27;;;;;;;-144.05;87.73;56997.50;5020249;28;20027;-83
2023/11/21 12:43:44;;;;;;;36.47;18.27;;;;;;;-144.05;88.16;57006.00;4977015;28;20520;-83
2023/11/21 12:46:11;;;;;;;38.40;17.92;;;9.30;99.90;;;-144.05;87.58;57031.50;5025453;28;20028;-80
2023/11/21 12:48:43;;;;;;;28.80;14.40;;;;;;;-144.05;87.80;57025.13;5061232;28;20418;-81
2023/11/21 12:51:11;;;;;;;34.05;16.38;;;;;;;-144.05;87.77;57029.38;5062130;28;20393;-83
2023/11/21 12:53:40;;;;;;;37.67;16.83;;;9.10;99.90;;;-144.05;87.67;57018.75;5022580;28;20027;-84
2023/11/21 12:56:16;;;;;;;36.03;15.43;;;9.80;99.90;;;-144.05;88.04;57029.38;5077802;28;20488;-83
2023/11/21 12:58:48;;;;;;;35.40;17.05;;;9.80;99.90;;;-144.05;88.22;57046.38;5061702;28;20119;-81
2023/11/21 13:01:18;;;;;;;38.65;17.42;;;;;;;-144.05;88.01;57031.50;4993890;28;20051;-83
2023/11/21 13:03:51;;;;;;;50.80;22.13;;;8.80;99.90;;;-144.05;88.06;57003.88;5032049;28;20038;-84
2023/11/21 13:06:19;;;;;;;40.95;20.40;;;9.10;99.90;;;-144.05;87.83;57003.88;4975026;28;20567;-82
2023/11/21 13:08:46;;;;;;;35.55;17.55;;;;;;;-144.05;87.78;57020.88;5014588;28;20040;-81
2023/11/21 13:11:14;;;;;;;38.20;17.38;;;;;;;-144.05;88.11;57016.63;4993974;28;20478;-83
2023/11/21 13:13:43;;;;;;;32.53;16.58;;;9.70;99.90;;;-144.05;87.90;56978.41;5059818;28;20036;-79
2023/11/21 13:16:10;;;;;;;42.28;18.50;;;;;;;-144.05;88.38;57040.00;5018166;28;20041;-81
2023/11/21 13:18:39;;;;;;;36.13;17.15;;;;;;;-144.05;88.25;57006.00;5015319;28;20075;-81
2023/11/21 13:21:13;;;;;;;36.65;17.23;;;;;;;-144.05;88.70;57052.75;5041657;28;20019;-82
2023/11/21 13:23:42;;;;;;;32.83;16.17;;;;;;;-144.05;88.75;57044.25;5020283;28;20044;-81
2023/11/21 13:26:09;;;;;;;35.25;15.07;;;9.80;99.90;;;-144.05;89.09;57018.75;5021548;28;20048;-82
2023/11/21 13:28:37;;;;;;;26.48;13.70;;;8.90;99.90;;;-144.05;88.93;57014.50;5059506;28;20056;-83
2023/11/21 13:31:22;;;;;;;24.65;12.75;;;10.30;99.90;;;-144.05;89.19;57008.13;4976674;28;20029;-84
2023/11/21 13:34:08;;;;;;;20.48;10.43;;;;;;;-144.05;88.66;57016.63;5015360;28;20482;-82
2023/11/21 13:36:35;;;;;;;25.85;11.07;;;;;;;-144.05;88.53;57018.75;5073158;28;20540;-84
2023/11/21 13:39:07;;;;;;;26.83;13.60;;;;;;;-144.05;88.68;57031.50;5056425;28;20037;-82
2023/11/21 13:41:34;;;;;;;23.35;11.93;;;9.60;99.90;;;-144.05;88.29;57033.63;5061822;28;20036;-81
2023/11/21 13:44:15;;;;;;;22.70;11.10;;;;;;;-144.05;88.71;57018.75;5033579;28;20035;-83
2023/11/21 13:46:42;;;;;;;22.77;10.88;;;;;;;-144.05;88.41;57006.00;5015308;28;20023;-85
2023/11/21 13:49:09;;;;;;;24.67;10.93;;;;;;;-144.05;88.25;57044.25;5084448;28;20104;-83
2023/11/21 13:51:44;;;;;;;21.75;10.80;;;;;;;-144.05;87.87;57040.00;4997115;28;20031;-85
2023/11/21 13:54:10;;;;;;;23.80;11.45;;;;;;;-144.05;87.82;57006.00;5021963;28;20043;-85
2023/11/21 13:56:44;;;;;;;24.60;10.27;;;10.00;99.90;;;-144.05;88.44;57023.00;5001170;28;20026;-82
2023/11/21 13:59:20;;;;;;;22.98;10.20;;;;;;;-144.05;88.53;57018.75;5015186;28;20035;-84
2023/11/21 14:04:25;;;;;;;23.42;10.88;;;;;;;-144.05;88.56;57042.13;5003990;28;20028;-82
2023/11/21 14:06:54;;;;;;;25.50;11.60;;;;;;;-144.05;88.74;57027.25;4995880;28;20061;-84
2023/11/21 14:09:25;;;;;;;19.92;10.18;;;;;;;-144.05;88.66;57020.88;5040099;28;20148;-84
2023/11/21 14:11:57;;;;;;;25.17;11.05;;;10.10;99.90;;;-144.05;88.53;57023.00;5025897;28;20059;-83
2023/11/21 14:14:26;;;;;;;23.60;10.77;;;8.80;99.90;;;-144.05;88.78;57018.75;5067288;28;20020;-83
2023/11/21 14:16:52;;;;;;;22.38;9.38;;;8.00;99.90;;;-144.05;88.27;57033.63;5024147;28;20050;-83
2023/11/21 14:19:19;;;;;;;19.45;10.02;;;;;;;-144.05;88.08;57023.00;5049825;28;20034;-83
2023/11/21 14:21:48;;;;;;;22.70;9.82;;;;;;;-144.05;88.30;57027.25;5050506;28;20043;-82
2023/11/21 14:24:18;;;;;;;23.45;12.32;;;;;;;-144.05;87.93;57010.25;4980511;28;20035;-82
2023/11/21 14:26:46;;;;;;;21.08;12.40;;;9.40;99.90;;;-144.05;88.02;57027.25;5060331;28;20515;-83
2023/11/21 14:29:19;;;;;;;26.27;12.43;;;9.60;99.90;;;-144.05;87.77;57029.38;5009829;28;20042;-81
2023/11/21 14:31:47;;;;;;;20.73;11.80;;;;;;;-144.05;87.80;57046.38;5016843;28;20095;-86
2023/11/21 14:34:14;;;;;;;24.48;12.40;;;;;;;-144.05;87.80;57008.13;5023600;28;20054;-81
2023/11/21 14:36:41;;;;;;;20.63;10.52;;;;;;;-144.05;87.79;57035.75;4980118;28;20447;-85
2023/11/21 14:39:11;;;;;;;22.05;10.45;;;;;;;-144.05;87.18;57023.00;5050839;28;20135;-84
2023/11/21 14:41:39;;;;;;;15.05;9.20;;;;;;;-144.05;86.75;56976.28;5015005;28;20027;-82
2023/11/21 14:44:07;;;;;;;16.98;9.10;;;;;;;-144.05;86.96;57040.00;5022868;28;20054;-85
2023/11/21 14:46:34;;;;;;;16.65;8.65;;;;;;;-144.05;86.26;57010.25;5023073;28;20031;-85
2023/11/21 14:49:19;;;;;;;14.80;8.25;;;;;;;-144.05;86.03;57046.38;5016496;28;20081;-84
2023/11/21 14:52:19;;;;;;;16.15;9.07;;;;;;;-144.05;86.15;57035.75;5018898;28;20031;-85
2023/11/21 14:54:56;;;;;;;21.02;11.68;;;;;;;-144.05;86.76;57052.75;4968640;28;20054;-82
2023/11/21 14:57:24;;;;;;;17.60;11.15;;;;;;;-144.05;86.63;57027.25;5007437;28;20024;-84
2023/11/21 14:59:57;;;;;;;19.08;10.20;;;;;;;-144.05;86.32;57035.75;5007372;28;20037;-83
2023/11/21 15:05:14;;;;;;;12.93;7.20;;;;;;;-144.05;86.97;57027.25;5084440;28;20051;-85
2023/11/21 15:07:41;;;;;;;11.93;6.60;;;;;;;-144.05;86.73;57010.25;5059926;28;20362;-83
2023/11/21 15:10:14;;;;;;;9.35;5.95;;;;;;;-144.05;86.74;57059.09;5015073;28;20051;-84
2023/11/21 15:12:43;;;;;;;7.85;4.68;;;;;;;-144.05;87.06;57016.63;5089174;28;20048;-82
2023/11/21 15:15:10;;;;;;;7.88;4.95;;;;;;;-144.05;86.27;57048.50;5078600;28;20038;-84
2023/11/21 15:17:38;;;;;;;9.75;5.68;;;;;;;-144.05;86.22;57040.00;4977779;28;20081;-81
2023/11/21 15:20:06;;;;;;;9.20;6.22;;;;;;;-144.05;86.86;57014.50;4982747;28;20046;-81
2023/11/21 15:22:33;;;;;;;11.65;6.30;;;;;;;-144.05;86.54;57006.00;5012915;28;20027;-82
2023/11/21 15:25:04;;;;;;;9.35;6.00;;;;;;;-144.05;86.61;57014.50;5023511;28;20065;-83
2023/11/21 15:27:30;;;;;;;11.82;6.75;;;;;;;-144.05;86.79;57006.00;5049970;28;20037;-81
2023/11/21 15:29:56;;;;;;;15.35;7.93;;;;;;;-144.05;86.81;56999.63;5090506;28;20032;-83
2023/11/21 15:32:22;;;;;;;18.90;9.95;;;;;;;-144.05;87.98;57071.84;5072281;28;20021;-84
2023/11/21 15:34:49;;;;;;;18.33;10.48;;;;;;;-144.05;87.92;57016.63;5086986;28;20029;-83
2023/11/21 15:37:15;;;;;;;22.05;11.25;;;;;;;-144.05;88.07;57042.13;5054756;28;20038;-84
2023/11/21 15:39:42;;;;;;;20.75;11.50;;;;;;;-144.05;88.31;57050.63;5017715;28;20031;-84
2023/11/21 15:42:09;;;;;;;20.60;11.07;;;;;;;-144.05;88.05;57061.22;5067545;28;20189;-81
2023/11/21 15:44:37;;;;;;;20.70;12.15;;;;;;;-144.05;87.78;57023.00;5020190;28;20028;-84
2023/11/21 15:47:04;;;;;;;21.58;12.10;;;;;;;-144.05;88.60;57025.13;4983547;28;20042;-81
2023/11/21 15:49:36;;;;;;;24.65;12.85;;;;;;;-144.05;88.25;57054.88;5026138;28;20030;-83
2023/11/21 15:52:06;;;;;;;22.20;12.98;;;;;;;-144.05;88.27;57042.13;5069718;28;20596;-84
2023/11/21 15:54:34;;;;;;;24.60;13.77;;;;;;;-144.05;88.03;56997.50;4980040;28;20092;-83
2023/11/21 15:57:00;;;;;;;23.35;12.20;;;;;;;-144.05;87.37;57029.38;4978492;28;20320;-84
2023/11/21 15:59:31;;;;;;;23.65;13.32;;;;;;;-144.05;87.63;57025.13;5003483;28;20025;-82
2023/11/21 16:01:58;;;;;;;32.45;13.27;;;;;;;-144.05;87.41;57020.88;5068066;28;20088;-83
2023/11/21 16:04:26;;;;;;;17.25;11.43;;;;;;;-144.05;87.27;56995.38;5070320;28;20028;-84
2023/11/21 16:06:53;;;;;;;19.83;11.90;;;;;;;-144.05;86.80;57073.97;5031368;28;20031;-84
2023/11/21 16:09:32;;;;;;;17.88;11.48;;;;;;;-144.05;86.30;57035.75;5039339;28;20081;-84
2023/11/21 16:12:02;;;;;;;19.13;11.23;;;7.40;99.90;;;-144.05;86.07;57061.22;4995153;28;20034;-84
2023/11/21 16:14:41;;;;;;;15.80;10.65;;;8.70;99.90;;;-144.05;85.73;57048.50;5032582;28;20021;-83
2023/11/21 16:17:08;;;;;;;19.77;10.95;;;;;;;-144.05;86.05;57023.00;5067996;28;20044;-80
2023/11/21 16:19:35;;;;;;;20.63;14.20;;;;;;;-144.05;86.03;57048.50;5002833;28;20084;-84
2023/11/21 16:22:01;;;;;;;20.60;12.13;;;;;;;-144.05;86.14;57052.75;5011304;28;20122;-86
2023/11/21 16:24:28;;;;;;;18.10;10.82;;;;;;;-144.05;85.87;57025.13;5015505;28;20058;-81
2023/11/21 16:26:58;;;;;;;19.08;10.77;;;;;;;-144.05;85.46;57006.00;5065665;28;20035;-83